Time;durP1;ratioP1;P1;durP2;ratioP2;P2;SDS_P1;SDS_P2;PMS_P1;PMS_P2;Temp;Humidity;BMP_temperature;BMP_pressure;BME280_temperature;BME280_humidity;BME280_pressure;Samples;Min_cycle;Max_cycle;Signal;HPM_P1;HPM_P2
2023/01/24 00:00:14;;;;;;;40.03;19.60;;;0.50;99.90;;;;;;6209201;23;20912;-78
2023/01/24 00:02:40;;;;;;;42.07;20.90;;;0.50;99.90;;;;;;6209548;23;20406;-76
2023/01/24 00:05:08;;;;;;;32.03;19.00;;;0.50;99.90;;;;;;6208804;23;20449;-78
2023/01/24 00:07:35;;;;;;;38.20;17.70;;;0.60;99.90;;;;;;6209784;23;20391;-78
2023/01/24 00:10:01;;;;;;;35.33;19.13;;;0.60;99.90;;;;;;6208936;23;20418;-76
2023/01/24 00:12:30;;;;;;;38.13;20.00;;;0.60;99.90;;;;;;6208671;23;20398;-77
2023/01/24 00:14:57;;;;;;;40.23;19.20;;;0.60;99.90;;;;;;6209882;23;20442;-77
2023/01/24 00:17:25;;;;;;;39.03;19.37;;;0.60;99.90;;;;;;6210691;23;20482;-77
2023/01/24 00:19:51;;;;;;;47.53;22.57;;;0.60;99.90;;;;;;6210188;23;20430;-77
2023/01/24 00:22:18;;;;;;;40.37;18.67;;;0.60;99.90;;;;;;6209782;23;21013;-76
2023/01/24 00:24:45;;;;;;;42.00;21.83;;;0.50;99.90;;;;;;6210387;23;20429;-79
2023/01/24 00:27:12;;;;;;;39.33;19.37;;;0.50;99.90;;;;;;6210546;23;20450;-77
2023/01/24 00:29:40;;;;;;;46.50;21.87;;;0.50;99.90;;;;;;6210094;23;20419;-83
2023/01/24 00:32:07;;;;;;;44.87;22.30;;;0.50;99.90;;;;;;6210147;23;20411;-77
2023/01/24 00:34:34;;;;;;;46.43;24.30;;;0.50;99.90;;;;;;6210176;23;20447;-77
2023/01/24 00:37:01;;;;;;;45.30;20.93;;;0.50;99.90;;;;;;6210375;23;20415;-78
2023/01/24 00:39:28;;;;;;;38.47;19.10;;;0.60;99.90;;;;;;6211200;23;20516;-80
2023/01/24 00:41:55;;;;;;;41.40;20.67;;;0.60;99.90;;;;;;6211556;23;20420;-79
2023/01/24 00:44:22;;;;;;;45.20;21.30;;;0.60;99.90;;;;;;6211319;23;20424;-83
2023/01/24 00:46:52;;;;;;;45.43;20.13;;;0.60;99.90;;;;;;6214557;23;20415;-79
2023/01/24 00:49:18;;;;;;;48.90;21.97;;;0.60;99.90;;;;;;6215110;23;20432;-79
2023/01/24 00:51:45;;;;;;;46.80;22.07;;;0.60;99.90;;;;;;6215290;23;20415;-78
2023/01/24 00:54:12;;;;;;;37.97;18.00;;;0.60;99.90;;;;;;6215338;23;20450;-78
2023/01/24 00:56:39;;;;;;;39.13;19.07;;;0.60;99.90;;;;;;6210233;23;20425;-78
2023/01/24 00:59:06;;;;;;;44.43;21.40;;;0.60;99.90;;;;;;6209885;23;20417;-78
2023/01/24 01:01:32;;;;;;;45.73;20.23;;;0.70;99.90;;;;;;6209908;23;20422;-78
2023/01/24 01:04:01;;;;;;;54.17;22.80;;;0.60;99.90;;;;;;6210594;23;20406;-77
2023/01/24 01:06:27;;;;;;;45.93;21.30;;;0.60;99.90;;;;;;6210676;23;20443;-77
2023/01/24 01:08:54;;;;;;;53.70;20.87;;;0.70;99.90;;;;;;6210705;23;20415;-79
2023/01/24 01:11:21;;;;;;;49.53;20.30;;;0.70;99.90;;;;;;6211036;23;20419;-77
2023/01/24 01:13:48;;;;;;;51.77;24.63;;;0.60;99.90;;;;;;6214805;23;20934;-77
2023/01/24 01:16:18;;;;;;;48.30;24.07;;;0.60;99.90;;;;;;6214633;23;20407;-78
2023/01/24 01:18:46;;;;;;;51.30;25.77;;;0.60;99.90;;;;;;6215818;23;20397;-81
2023/01/24 01:21:17;;;;;;;45.90;23.13;;;0.60;99.90;;;;;;6216069;23;20490;-79
2023/01/24 01:23:44;;;;;;;52.80;21.20;;;0.60;99.90;;;;;;6214957;23;20730;-78
2023/01/24 01:26:15;;;;;;;51.20;22.37;;;0.60;99.90;;;;;;6213883;23;20758;-80
2023/01/24 01:28:42;;;;;;;47.20;23.63;;;0.60;99.90;;;;;;6215289;23;20409;-83
2023/01/24 01:31:09;;;;;;;54.70;26.27;;;0.60;99.90;;;;;;6212302;23;20395;-77
2023/01/24 01:33:36;;;;;;;49.83;22.50;;;0.50;99.90;;;;;;6209594;23;20417;-77
2023/01/24 01:36:03;;;;;;;51.57;24.20;;;0.50;99.90;;;;;;6209531;23;20411;-78
2023/01/24 01:38:31;;;;;;;51.63;24.47;;;0.60;99.90;;;;;;6209976;23;20415;-77
2023/01/24 01:40:59;;;;;;;53.87;22.60;;;0.60;99.90;;;;;;6210233;23;20420;-77
2023/01/24 01:43:28;;;;;;;54.50;26.20;;;0.50;99.90;;;;;;6209773;23;20500;-78
2023/01/24 01:45:55;;;;;;;47.90;22.60;;;0.60;99.90;;;;;;6209723;23;20399;-78
2023/01/24 01:48:27;;;;;;;48.27;22.57;;;0.50;99.90;;;;;;6208957;23;20445;-77
2023/01/24 01:51:00;;;;;;;47.87;24.20;;;0.60;99.90;;;;;;6209247;23;20403;-77
2023/01/24 01:53:32;;;;;;;49.00;23.27;;;0.60;99.90;;;;;;6209795;23;20399;-79
2023/01/24 01:56:04;;;;;;;52.87;20.73;;;0.60;99.90;;;;;;6210274;23;21075;-79
2023/01/24 01:58:31;;;;;;;49.73;23.73;;;0.50;99.90;;;;;;6210806;23;20402;-77
2023/01/24 02:00:58;;;;;;;47.07;22.87;;;0.60;99.90;;;;;;6211071;23;20406;-78
2023/01/24 02:03:39;;;;;;;58.90;24.80;;;0.50;99.90;;;;;;6209621;23;20753;-78
2023/01/24 02:06:16;;;;;;;46.20;23.50;;;0.50;99.90;;;;;;6208967;23;20456;-77
2023/01/24 02:08:45;;;;;;;50.23;22.90;;;0.50;99.90;;;;;;6210119;23;20400;-78
2023/01/24 02:16:41;;;;;;;48.63;23.50;;;0.50;99.90;;;;;;6209363;23;20438;-77
2023/01/24 02:19:13;;;;;;;43.87;22.20;;;0.50;99.90;;;;;;6211192;23;20390;-77
2023/01/24 02:21:41;;;;;;;55.13;26.20;;;0.50;99.90;;;;;;6210457;23;20899;-80
2023/01/24 02:24:18;;;;;;;53.23;22.67;;;0.50;99.90;;;;;;6210863;23;20420;-78
2023/01/24 02:26:46;;;;;;;48.93;25.53;;;0.50;99.90;;;;;;6210912;23;20409;-77
2023/01/24 02:29:15;;;;;;;54.63;22.07;;;0.50;99.90;;;;;;6211180;23;20917;-77
2023/01/24 02:31:54;;;;;;;50.83;20.90;;;0.60;99.90;;;;;;6211650;23;20402;-78
2023/01/24 02:34:20;;;;;;;52.53;22.57;;;0.60;99.90;;;;;;6210986;23;20971;-81
2023/01/24 02:36:51;;;;;;;43.80;22.70;;;0.50;99.90;;;;;;6210810;23;20924;-78
2023/01/24 02:39:22;;;;;;;50.07;22.83;;;0.60;99.90;;;;;;6211557;23;20391;-78
2023/01/24 02:41:54;;;;;;;63.83;24.37;;;0.60;99.90;;;;;;6211516;23;20395;-77
2023/01/24 02:44:26;;;;;;;48.97;23.63;;;0.50;99.90;;;;;;6210872;23;20703;-77
2023/01/24 02:46:53;;;;;;;48.43;22.67;;;0.60;99.90;;;;;;6210864;23;20866;-78
2023/01/24 02:49:20;;;;;;;52.20;22.80;;;0.50;99.90;;;;;;6211033;23;20431;-77
2023/01/24 02:54:31;;;;;;;48.63;23.57;;;0.60;99.90;;;;;;6210014;23;20477;-77
2023/01/24 02:59:43;;;;;;;49.37;22.90;;;0.60;99.90;;;;;;6210831;23;20381;-77
2023/01/24 03:02:10;;;;;;;47.50;22.30;;;0.60;99.90;;;;;;6210627;23;20412;-76
2023/01/24 03:04:37;;;;;;;41.70;20.47;;;0.60;99.90;;;;;;6211012;23;20415;-75
2023/01/24 03:07:04;;;;;;;58.83;24.13;;;0.60;99.90;;;;;;6211055;23;20410;-78
2023/01/24 03:09:38;;;;;;;51.60;23.40;;;0.60;99.90;;;;;;6210216;23;20926;-76
2023/01/24 03:36:46;;;;;;;37.33;20.80;;;0.60;99.90;;;;;;6210439;23;20386;-77
2023/01/24 03:41:57;;;;;;;47.83;22.13;;;0.60;99.90;;;;;;6210352;23;20421;-77
2023/01/24 03:44:26;;;;;;;51.10;23.87;;;0.70;99.90;;;;;;6210490;23;20927;-77
2023/01/24 03:46:52;;;;;;;56.23;24.17;;;0.60;99.90;;;;;;6210691;23;20402;-77
2023/01/24 03:49:19;;;;;;;49.00;24.30;;;0.60;99.90;;;;;;6209915;23;20436;-77
2023/01/24 03:54:30;;;;;;;47.53;23.43;;;0.60;99.90;;;;;;6210133;23;20381;-77
2023/01/24 03:56:57;;;;;;;46.30;22.87;;;0.50;99.90;;;;;;6210606;23;20406;-76
2023/01/24 03:59:23;;;;;;;55.00;24.33;;;0.50;99.90;;;;;;6209813;23;20410;-78
2023/01/24 04:01:51;;;;;;;47.27;23.03;;;0.60;99.90;;;;;;6210409;23;20496;-77
2023/01/24 04:04:18;;;;;;;54.73;24.73;;;0.50;99.90;;;;;;6210048;23;20415;-77
2023/01/24 04:06:45;;;;;;;59.43;27.83;;;0.50;99.90;;;;;;6209895;23;20458;-78
2023/01/24 04:09:12;;;;;;;54.80;24.80;;;0.60;99.90;;;;;;6211121;23;20402;-76
2023/01/24 04:11:39;;;;;;;49.73;22.70;;;0.50;99.90;;;;;;6210413;23;20407;-77
2023/01/24 04:14:05;;;;;;;58.23;26.00;;;0.60;99.90;;;;;;6210425;23;20413;-77
2023/01/24 04:16:32;;;;;;;53.27;23.43;;;0.60;99.90;;;;;;6210219;23;20452;-77
2023/01/24 04:19:00;;;;;;;50.60;23.27;;;0.60;99.90;;;;;;6210307;23;20858;-77
2023/01/24 04:21:27;;;;;;;43.47;21.17;;;0.40;99.90;;;;;;6210244;23;20765;-76
2023/01/24 04:23:54;;;;;;;54.37;25.20;;;0.60;99.90;;;;;;6210269;23;20407;-77
2023/01/24 04:26:20;;;;;;;60.17;23.77;;;0.60;99.90;;;;;;6210182;23;20406;-77
2023/01/24 04:28:47;;;;;;;51.40;23.57;;;0.60;99.90;;;;;;6210687;23;20468;-81
2023/01/24 04:31:14;;;;;;;57.30;24.50;;;0.60;99.90;;;;;;6210467;23;20409;-82
2023/01/24 04:33:41;;;;;;;57.00;22.30;;;0.50;99.90;;;;;;6210432;23;20421;-81
2023/01/24 04:36:11;;;;;;;53.13;22.13;;;0.50;99.90;;;;;;6210320;23;20438;-82
2023/01/24 04:38:38;;;;;;;45.43;20.93;;;0.60;99.90;;;;;;6209875;23;20812;-81
2023/01/24 04:41:05;;;;;;;45.70;24.10;;;0.60;99.90;;;;;;6209961;23;20758;-86
2023/01/24 04:43:31;;;;;;;59.50;23.13;;;0.60;99.90;;;;;;6208890;23;20493;-82
2023/01/24 04:45:59;;;;;;;56.50;24.40;;;0.50;99.90;;;;;;6208905;23;20407;-89
2023/01/24 04:48:26;;;;;;;50.00;21.40;;;0.50;99.90;;;;;;6209366;23;20436;-83
2023/01/24 04:50:57;;;;;;;53.00;24.80;;;0.60;99.90;;;;;;6208828;23;20707;-82
2023/01/24 04:53:26;;;;;;;46.73;21.63;;;0.60;99.90;;;;;;6208754;23;20406;-83
2023/01/24 04:55:52;;;;;;;53.53;23.97;;;0.60;99.90;;;;;;6209958;23;20537;-82
2023/01/24 04:58:19;;;;;;;45.80;21.73;;;0.60;99.90;;;;;;6210377;23;20418;-82
2023/01/24 05:00:46;;;;;;;43.23;22.17;;;0.50;99.90;;;;;;6210633;23;20970;-80
2023/01/24 05:03:13;;;;;;;54.80;24.33;;;0.50;99.90;;;;;;6210306;23;20417;-84
2023/01/24 05:05:39;;;;;;;47.87;21.73;;;0.60;99.90;;;;;;6211255;23;20761;-83
2023/01/24 05:08:06;;;;;;;49.53;23.27;;;0.60;99.90;;;;;;6210859;23;20434;-83
2023/01/24 05:10:34;;;;;;;55.87;24.27;;;0.70;99.90;;;;;;6211578;23;20438;-84
2023/01/24 05:13:01;;;;;;;46.63;20.47;;;0.80;99.90;;;;;;6213435;23;20403;-83
2023/01/24 05:15:28;;;;;;;51.47;22.37;;;0.70;99.90;;;;;;6212921;23;20451;-79
2023/01/24 05:17:55;;;;;;;49.10;22.50;;;0.60;99.90;;;;;;6212263;23;20424;-80
2023/01/24 05:20:22;;;;;;;40.97;17.83;;;0.60;99.90;;;;;;6219738;23;20453;-78
2023/01/24 05:22:48;;;;;;;40.73;20.37;;;0.60;99.90;;;;;;6223905;23;20421;-80
2023/01/24 05:25:15;;;;;;;55.47;22.20;;;0.70;99.90;;;;;;6219458;23;20414;-86
2023/01/24 05:27:44;;;;;;;47.77;22.33;;;0.70;99.90;;;;;;6222831;23;20727;-86
2023/01/24 05:30:12;;;;;;;44.90;19.43;;;0.70;99.90;;;;;;6222863;23;20468;-84
2023/01/24 05:32:39;;;;;;;53.70;22.30;;;0.70;99.90;;;;;;6222939;23;20433;-84
2023/01/24 05:35:07;;;;;;;43.20;18.80;;;0.60;99.90;;;;;;6222718;23;20524;-80
2023/01/24 05:37:36;;;;;;;47.83;21.33;;;0.70;99.90;;;;;;6224038;23;20478;-91
2023/01/24 05:40:04;;;;;;;47.77;20.47;;;0.80;99.90;;;;;;6217347;23;20413;-90
2023/01/24 05:42:31;;;;;;;47.13;23.13;;;0.80;99.90;;;;;;6211746;23;20410;-84
2023/01/24 05:44:59;;;;;;;43.63;19.57;;;0.80;99.90;;;;;;6214797;23;20402;-92
2023/01/24 05:47:26;;;;;;;49.07;22.07;;;0.70;99.90;;;;;;6214702;23;20410;-86
2023/01/24 05:49:53;;;;;;;45.77;21.40;;;0.50;99.90;;;;;;6213324;23;20409;-85
2023/01/24 05:52:21;;;;;;;44.20;21.77;;;0.70;99.90;;;;;;6213185;23;20394;-83
2023/01/24 05:54:48;;;;;;;58.50;22.33;;;0.80;99.90;;;;;;6213461;23;20468;-84
2023/01/24 05:57:15;;;;;;;48.10;21.90;;;0.80;99.90;;;;;;6210491;23;20414;-86
2023/01/24 05:59:42;;;;;;;47.80;19.57;;;0.70;99.90;;;;;;6212896;23;21022;-87
2023/01/24 06:02:10;;;;;;;45.67;20.37;;;0.80;99.90;;;;;;6213463;23;20437;-86
2023/01/24 06:04:37;;;;;;;51.73;23.53;;;0.80;99.90;;;;;;6215289;23;20550;-90
2023/01/24 06:07:04;;;;;;;49.80;23.47;;;0.70;99.90;;;;;;6216326;23;20409;-84
2023/01/24 06:09:30;;;;;;;54.80;22.43;;;0.70;99.90;;;;;;6215337;23;20482;-87
2023/01/24 06:11:57;;;;;;;53.07;23.03;;;0.80;99.90;;;;;;6214788;23;20436;-84
2023/01/24 06:14:24;;;;;;;60.37;23.67;;;0.70;99.90;;;;;;6213995;23;20406;-78
2023/01/24 06:16:51;;;;;;;68.17;25.33;;;0.80;99.90;;;;;;6210717;23;20446;-82
2023/01/24 06:19:19;;;;;;;67.47;26.67;;;0.80;99.90;;;;;;6213726;23;20414;-80
2023/01/24 06:21:49;;;;;;;56.73;25.67;;;0.70;99.90;;;;;;6211284;23;20402;-76
2023/01/24 06:24:19;;;;;;;67.30;25.83;;;0.70;99.90;;;;;;6211798;23;20416;-83
2023/01/24 06:26:49;;;;;;;58.60;23.77;;;0.80;99.90;;;;;;6217370;23;20399;-82
2023/01/24 06:29:17;;;;;;;53.43;23.63;;;0.80;99.90;;;;;;6213070;23;20762;-76
2023/01/24 06:31:55;;;;;;;71.00;26.23;;;0.70;99.90;;;;;;6213607;23;20399;-78
2023/01/24 06:34:43;;;;;;;58.80;23.70;;;0.70;99.90;;;;;;6212303;23;20398;-77
2023/01/24 06:37:16;;;;;;;60.60;24.47;;;0.80;99.90;;;;;;6212014;23;20434;-75
2023/01/24 06:39:50;;;;;;;68.50;26.13;;;0.70;99.90;;;;;;6210740;23;20395;-74
2023/01/24 06:42:18;;;;;;;59.90;24.33;;;0.70;99.90;;;;;;6211303;23;21014;-75
2023/01/24 06:44:44;;;;;;;62.83;25.97;;;0.80;99.90;;;;;;6210735;23;20406;-75
2023/01/24 06:47:11;;;;;;;66.43;24.07;;;0.80;99.90;;;;;;6211008;23;20407;-75
2023/01/24 06:49:40;;;;;;;55.60;27.20;;;0.80;99.90;;;;;;6210549;23;20833;-77
2023/01/24 06:52:07;;;;;;;63.33;25.83;;;0.70;99.90;;;;;;6209852;23;20486;-76
2023/01/24 06:54:34;;;;;;;56.10;26.50;;;0.70;99.90;;;;;;6209776;23;20926;-76
2023/01/24 06:57:01;;;;;;;50.03;23.70;;;0.80;99.90;;;;;;6210622;23;20450;-77
2023/01/24 06:59:28;;;;;;;61.83;24.20;;;0.90;99.90;;;;;;6210801;23;20411;-77
2023/01/24 07:01:55;;;;;;;66.30;25.40;;;0.80;99.90;;;;;;6210692;23;20421;-78
2023/01/24 07:04:22;;;;;;;64.20;24.57;;;0.80;99.90;;;;;;6210983;23;20796;-77
2023/01/24 07:06:52;;;;;;;54.20;23.90;;;0.70;99.90;;;;;;6210572;23;20939;-77
2023/01/24 07:09:19;;;;;;;51.37;25.47;;;0.70;99.90;;;;;;6210381;23;20399;-77
2023/01/24 07:11:47;;;;;;;73.03;29.80;;;0.70;99.90;;;;;;6210738;23;20411;-77
2023/01/24 07:14:14;;;;;;;63.37;26.73;;;0.80;99.90;;;;;;6211352;23;20410;-83
2023/01/24 07:16:41;;;;;;;56.30;26.60;;;0.70;99.90;;;;;;6207173;23;20442;-83
2023/01/24 07:19:13;;;;;;;58.63;24.40;;;0.80;99.90;;;;;;6208256;23;20411;-83
2023/01/24 07:21:41;;;;;;;71.90;27.97;;;0.80;99.90;;;;;;6208958;23;20555;-80
2023/01/24 07:24:14;;;;;;;56.77;21.90;;;0.80;99.90;;;;;;6209374;23;20403;-84
2023/01/24 07:26:41;;;;;;;59.57;28.03;;;0.80;99.90;;;;;;6209950;23;20387;-80
2023/01/24 07:29:08;;;;;;;64.27;25.83;;;0.80;99.90;;;;;;6209810;23;20405;-80
2023/01/24 07:31:35;;;;;;;68.37;26.33;;;0.70;99.90;;;;;;6209411;23;20414;-83
2023/01/24 07:34:02;;;;;;;54.27;25.17;;;0.80;99.90;;;;;;6210178;23;20480;-91
2023/01/24 07:36:29;;;;;;;61.60;26.17;;;1.00;99.90;;;;;;6210934;23;20840;-75
2023/01/24 07:38:56;;;;;;;68.07;25.80;;;0.90;99.90;;;;;;6208854;23;20449;-77
2023/01/24 07:41:24;;;;;;;52.17;23.47;;;0.90;99.90;;;;;;6209658;23;20416;-78
2023/01/24 07:43:51;;;;;;;58.20;22.80;;;0.90;99.90;;;;;;6209613;23;20407;-75
2023/01/24 07:46:17;;;;;;;61.60;26.10;;;0.90;99.90;;;;;;6209507;23;20716;-78
2023/01/24 07:48:44;;;;;;;52.80;23.70;;;1.00;99.90;;;;;;6209543;23;20761;-77
2023/01/24 07:51:11;;;;;;;53.17;24.60;;;1.00;99.90;;;;;;6208976;23;20418;-81
2023/01/24 07:53:38;;;;;;;63.63;25.70;;;1.00;99.90;;;;;;6209395;23;20414;-76
2023/01/24 07:56:05;;;;;;;47.67;24.60;;;1.00;99.90;;;;;;6208860;23;20438;-77
2023/01/24 07:58:33;;;;;;;46.80;23.40;;;0.90;99.90;;;;;;6208422;23;20827;-77
2023/01/24 08:01:00;;;;;;;52.30;23.87;;;1.00;99.90;;;;;;6209635;23;20409;-77
2023/01/24 08:03:27;;;;;;;52.23;25.43;;;1.00;99.90;;;;;;6209118;23;20418;-76
2023/01/24 08:05:54;;;;;;;59.63;22.97;;;0.90;99.90;;;;;;6209528;23;20438;-76
2023/01/24 08:08:21;;;;;;;52.93;22.40;;;1.00;99.90;;;;;;6208272;23;20415;-77
2023/01/24 08:10:47;;;;;;;47.63;22.97;;;1.00;99.90;;;;;;6209381;23;20407;-76
2023/01/24 08:13:14;;;;;;;49.50;24.07;;;1.00;99.90;;;;;;6208417;23;20749;-79
2023/01/24 08:15:42;;;;;;;47.03;23.33;;;1.00;99.90;;;;;;6209037;23;20407;-75
2023/01/24 08:18:09;;;;;;;46.40;23.50;;;1.00;99.90;;;;;;6209735;23;20407;-75
2023/01/24 08:20:36;;;;;;;61.77;26.80;;;1.00;99.90;;;;;;6209317;23;20411;-76
2023/01/24 08:23:03;;;;;;;55.73;23.80;;;1.00;99.90;;;;;;6209155;23;20732;-75
2023/01/24 08:25:31;;;;;;;53.17;21.50;;;1.00;99.90;;;;;;6209472;23;20414;-79
2023/01/24 08:27:58;;;;;;;41.80;22.10;;;1.10;99.90;;;;;;6208239;23;20901;-77
2023/01/24 08:30:25;;;;;;;53.47;23.80;;;1.10;99.90;;;;;;6207963;23;20407;-76
2023/01/24 08:33:01;;;;;;;57.43;23.97;;;1.10;99.90;;;;;;6209012;23;20984;-75
2023/01/24 08:35:28;;;;;;;48.70;21.30;;;1.20;99.90;;;;;;6208666;23;20465;-77
2023/01/24 08:37:54;;;;;;;53.70;22.70;;;1.20;99.90;;;;;;6208396;23;20447;-78
2023/01/24 08:40:21;;;;;;;52.47;22.40;;;1.20;99.90;;;;;;6210122;23;20428;-89
2023/01/24 08:42:48;;;;;;;44.00;19.70;;;1.20;99.90;;;;;;6211883;23;20418;-90
2023/01/24 08:45:15;;;;;;;48.07;22.97;;;1.30;99.90;;;;;;6214308;23;20493;-91
2023/01/24 08:47:42;;;;;;;52.33;22.00;;;1.30;99.90;;;;;;6217524;23;20498;-85
2023/01/24 08:50:14;;;;;;;47.43;20.60;;;1.20;99.90;;;;;;6213850;23;20497;-78
2023/01/24 08:52:41;;;;;;;49.50;21.53;;;1.10;99.90;;;;;;6213473;23;20531;-83
2023/01/24 08:55:08;;;;;;;49.60;19.67;;;1.10;99.90;;;;;;6213596;23;20421;-82
2023/01/24 08:57:35;;;;;;;49.83;22.60;;;1.10;99.90;;;;;;6209716;23;20443;-84
2023/01/24 09:00:02;;;;;;;45.43;21.03;;;1.10;99.90;;;;;;6209498;23;20948;-81
2023/01/24 09:02:32;;;;;;;44.30;22.00;;;1.20;99.90;;;;;;6210800;23;20987;-91
2023/01/24 09:04:58;;;;;;;47.63;20.73;;;1.20;99.90;;;;;;6211536;23;20452;-80
2023/01/24 09:07:26;;;;;;;55.13;21.63;;;1.30;99.90;;;;;;6210092;23;20394;-90
2023/01/24 09:09:53;;;;;;;44.23;19.47;;;1.30;99.90;;;;;;6210598;23;20409;-87
2023/01/24 09:12:20;;;;;;;41.13;19.43;;;1.30;99.90;;;;;;6211093;23;20939;-87
2023/01/24 09:14:47;;;;;;;44.03;19.37;;;1.40;99.90;;;;;;6211634;23;20927;-90
2023/01/24 09:17:14;;;;;;;42.17;20.60;;;1.30;99.90;;;;;;6211870;23;20448;-87
2023/01/24 09:19:40;;;;;;;52.23;22.17;;;1.30;99.90;;;;;;6210834;23;20443;-88
2023/01/24 09:22:07;;;;;;;39.40;20.73;;;1.30;99.90;;;;;;6212036;23;20409;-90
2023/01/24 09:24:35;;;;;;;46.53;23.23;;;1.30;99.90;;;;;;6212929;23;20498;-88
2023/01/24 09:27:02;;;;;;;47.83;20.63;;;1.30;99.90;;;;;;6213076;23;20419;-90
2023/01/24 09:29:29;;;;;;;46.77;21.60;;;1.30;99.90;;;;;;6216286;23;20407;-91
2023/01/24 09:31:56;;;;;;;38.47;17.43;;;1.30;99.90;;;;;;6217129;23;20783;-91
2023/01/24 09:34:23;;;;;;;52.77;21.73;;;1.30;99.90;;;;;;6215896;23;20828;-91
2023/01/24 09:36:49;;;;;;;45.80;20.13;;;1.40;99.90;;;;;;6212531;23;20526;-89
2023/01/24 09:39:17;;;;;;;39.23;18.63;;;1.40;99.90;;;;;;6213336;23;20418;-91
2023/01/24 09:41:56;;;;;;;49.50;20.30;;;1.50;99.90;;;;;;6215109;23;20414;-88
2023/01/24 09:44:28;;;;;;;44.80;19.67;;;1.50;99.90;;;;;;6213038;23;20771;-89
2023/01/24 09:46:57;;;;;;;41.93;18.87;;;1.50;99.90;;;;;;6212544;23;20387;-88
2023/01/24 09:49:35;;;;;;;41.30;19.70;;;1.40;99.90;;;;;;6212023;23;20941;-89
2023/01/24 09:52:07;;;;;;;36.30;17.97;;;1.40;99.90;;;;;;6211565;23;20391;-87
2023/01/24 09:54:39;;;;;;;42.30;21.10;;;1.40;99.90;;;;;;6211624;23;20869;-88
2023/01/24 09:57:13;;;;;;;51.23;23.10;;;1.40;99.90;;;;;;6212335;23;20445;-85
2023/01/24 09:59:44;;;;;;;35.00;19.23;;;1.30;99.90;;;;;;6212207;23;20653;-89
2023/01/24 10:02:17;;;;;;;40.70;19.27;;;1.40;99.90;;;;;;6212275;23;20391;-88
2023/01/24 10:04:44;;;;;;;38.60;20.17;;;1.40;99.90;;;;;;6212208;23;20932;-86
2023/01/24 10:07:46;;;;;;;38.37;20.03;;;1.40;99.90;;;;;;6212211;23;20405;-89
2023/01/24 10:10:26;;;;;;;36.87;18.50;;;1.50;99.90;;;;;;6187299;23;20496;-88
2023/01/24 10:13:01;;;;;;;33.77;18.03;;;1.40;99.90;;;;;;6212433;23;20403;-85
2023/01/24 10:15:38;;;;;;;46.77;19.10;;;1.20;99.90;;;;;;6211909;23;20798;-85
2023/01/24 10:18:27;;;;;;;39.73;19.47;;;1.50;99.90;;;;;;6212310;23;20422;-90
2023/01/24 10:21:08;;;;;;;40.43;20.43;;;1.50;99.90;;;;;;6211560;23;20749;-88
2023/01/24 10:23:38;;;;;;;36.40;17.53;;;1.50;99.90;;;;;;6213928;23;20394;-91
2023/01/24 10:26:16;;;;;;;39.73;21.47;;;1.60;99.90;;;;;;6213400;23;20731;-89
2023/01/24 10:28:50;;;;;;;37.93;18.70;;;1.60;99.90;;;;;;6213452;23;20379;-91
2023/01/24 10:31:22;;;;;;;40.77;17.93;;;1.60;99.90;;;;;;6213460;23;20480;-89
2023/01/24 10:33:52;;;;;;;34.13;18.70;;;1.60;99.90;;;;;;6213390;23;20397;-77
2023/01/24 10:36:27;;;;;;;36.70;18.70;;;1.70;99.90;;;;;;6212945;23;20396;-79
2023/01/24 10:38:53;;;;;;;40.50;20.53;;;1.70;99.90;;;;;;6213098;23;20379;-82
2023/01/24 10:41:22;;;;;;;42.87;19.10;;;1.60;99.90;;;;;;6211469;23;20403;-78
2023/01/24 10:44:00;;;;;;;31.00;19.07;;;1.70;99.90;;;;;;6210851;23;20508;-77
2023/01/24 10:46:43;;;;;;;40.33;18.13;;;1.60;99.90;;;;;;6210882;23;20430;-77
2023/01/24 10:49:18;;;;;;;40.37;19.50;;;1.70;99.90;;;;;;6211484;23;20461;-77
2023/01/24 10:52:12;;;;;;;39.23;19.00;;;1.70;99.90;;;;;;6211032;23;20398;-80
2023/01/24 10:54:50;;;;;;;33.43;17.50;;;1.60;99.90;;;;;;6211087;23;20493;-79
2023/01/24 10:57:34;;;;;;;37.63;16.73;;;1.70;99.90;;;;;;6210212;23;20967;-80
2023/01/24 11:00:20;;;;;;;34.63;17.00;;;1.70;99.90;;;;;;6210555;23;20387;-82
2023/01/24 11:02:50;;;;;;;37.53;20.00;;;1.70;99.90;;;;;;6210575;23;20412;-77
2023/01/24 11:05:17;;;;;;;37.63;19.93;;;1.60;99.90;;;;;;6210191;23;20591;-80
2023/01/24 11:07:48;;;;;;;36.97;22.33;;;1.70;99.90;;;;;;6210461;23;20482;-81
2023/01/24 11:10:22;;;;;;;46.33;19.47;;;1.70;99.90;;;;;;6210156;23;20398;-81
2023/01/24 11:12:52;;;;;;;31.03;16.20;;;1.70;99.90;;;;;;6210403;23;20419;-78
2023/01/24 11:15:24;;;;;;;35.67;17.33;;;1.60;99.90;;;;;;6210458;23;20411;-78
2023/01/24 11:17:56;;;;;;;35.43;17.37;;;1.70;99.90;;;;;;6211031;23;20433;-80
2023/01/24 11:20:29;;;;;;;36.53;16.73;;;1.60;99.90;;;;;;6210237;23;20540;-79
2023/01/24 11:23:05;;;;;;;42.03;20.13;;;1.60;99.90;;;;;;6210401;23;20426;-77
2023/01/24 11:25:32;;;;;;;32.10;16.10;;;1.70;99.90;;;;;;6210629;23;20474;-79
2023/01/24 11:28:00;;;;;;;32.50;15.90;;;1.70;99.90;;;;;;6210804;23;20421;-81
2023/01/24 11:30:34;;;;;;;29.87;16.50;;;1.70;99.90;;;;;;6209653;23;20564;-78
2023/01/24 11:33:14;;;;;;;34.20;19.00;;;1.70;99.90;;;;;;6210465;23;20404;-81
2023/01/24 11:35:46;;;;;;;32.23;18.40;;;1.70;99.90;;;;;;6209835;23;20463;-83
2023/01/24 11:38:29;;;;;;;37.00;17.80;;;1.50;99.90;;;;;;6209787;23;20940;-77
2023/01/24 11:41:11;;;;;;;36.57;16.80;;;1.50;99.90;;;;;;6209856;23;20941;-79
2023/01/24 11:44:18;;;;;;;31.13;16.13;;;1.50;99.90;;;;;;6210989;23;20399;-87
2023/01/24 11:46:57;;;;;;;33.50;17.33;;;1.60;99.90;;;;;;6210542;23;20380;-79
2023/01/24 11:49:42;;;;;;;40.20;18.30;;;1.50;99.90;;;;;;6210539;23;20422;-82
2023/01/24 11:52:26;;;;;;;31.47;16.03;;;1.60;99.90;;;;;;6209755;23;20418;-81
2023/01/24 11:55:03;;;;;;;34.20;16.80;;;1.70;99.90;;;;;;6209795;23;20393;-86
2023/01/24 11:57:39;;;;;;;34.73;16.73;;;1.60;99.90;;;;;;6209919;23;20442;-77
2023/01/24 12:00:21;;;;;;;34.80;17.90;;;1.70;99.90;;;;;;6207717;23;20395;-84
2023/01/24 12:03:30;;;;;;;32.10;16.43;;;1.70;99.90;;;;;;6209717;23;20959;-90
2023/01/24 12:06:08;;;;;;;29.20;15.00;;;1.80;99.90;;;;;;6194040;23;20494;-83
2023/01/24 12:08:46;;;;;;;28.57;15.83;;;1.80;99.90;;;;;;6209632;23;20908;-83
2023/01/24 12:11:22;;;;;;;24.20;14.87;;;1.80;99.90;;;;;;6209647;23;20395;-83
2023/01/24 12:13:59;;;;;;;26.10;14.60;;;1.70;99.90;;;;;;6209239;23;20422;-80
2023/01/24 12:16:42;;;;;;;26.83;15.03;;;1.80;99.90;;;;;;6208863;23;20784;-80
2023/01/24 12:19:45;;;;;;;30.67;13.50;;;1.80;99.90;;;;;;6208800;23;20542;-81
2023/01/24 12:22:20;;;;;;;28.70;15.00;;;1.80;99.90;;;;;;6208993;23;20380;-79
2023/01/24 12:24:51;;;;;;;31.50;15.27;;;1.80;99.90;;;;;;6208994;23;20390;-83
2023/01/24 12:27:22;;;;;;;29.40;14.13;;;1.80;99.90;;;;;;6208883;23;20384;-79
2023/01/24 12:29:56;;;;;;;31.73;15.53;;;1.90;99.90;;;;;;6210798;23;20376;-79
2023/01/24 12:32:28;;;;;;;33.97;14.60;;;1.90;99.90;;;;;;6208689;23;20400;-92
2023/01/24 12:35:02;;;;;;;26.67;15.87;;;1.90;99.90;;;;;;6207626;23;20732;-82
2023/01/24 12:37:36;;;;;;;26.17;14.70;;;1.90;99.90;;;;;;6208438;23;20429;-81
2023/01/24 12:40:08;;;;;;;30.67;15.10;;;1.90;99.90;;;;;;6207981;23;20962;-81
2023/01/24 12:42:45;;;;;;;26.60;15.10;;;1.80;99.90;;;;;;6208662;23;20408;-78
2023/01/24 12:45:17;;;;;;;34.33;14.10;;;1.90;99.90;;;;;;6206708;23;20463;-80
2023/01/24 12:47:48;;;;;;;29.03;14.40;;;2.00;99.90;;;;;;6206869;23;20755;-77
2023/01/24 12:50:23;;;;;;;26.40;14.60;;;1.90;99.90;;;;;;6207187;23;20391;-79
2023/01/24 12:53:02;;;;;;;23.33;12.53;;;1.90;99.90;;;;;;6207579;23;20421;-77
2023/01/24 12:55:36;;;;;;;25.10;15.80;;;1.80;99.90;;;;;;6208960;23;20486;-78
2023/01/24 12:58:10;;;;;;;30.40;14.70;;;1.90;99.90;;;;;;6208214;23;20474;-80
2023/01/24 13:00:48;;;;;;;25.20;13.27;;;1.90;99.90;;;;;;6208883;23;20397;-78
2023/01/24 13:03:28;;;;;;;22.40;14.63;;;1.90;99.90;;;;;;6208844;23;20407;-76
2023/01/24 13:06:03;;;;;;;34.30;14.00;;;2.10;99.90;;;;;;6209505;23;20501;-77
2023/01/24 13:08:47;;;;;;;29.20;14.30;;;2.00;99.90;;;;;;6209542;23;20387;-80
2023/01/24 13:11:20;;;;;;;21.03;12.90;;;2.10;99.90;;;;;;6209131;23;20490;-78
2023/01/24 13:13:58;;;;;;;26.50;14.80;;;2.10;99.90;;;;;;6208976;23;20413;-78
2023/01/24 13:16:45;;;;;;;23.97;13.53;;;2.10;99.90;;;;;;6208233;23;20777;-77
2023/01/24 13:19:22;;;;;;;27.37;16.10;;;2.10;99.90;;;;;;6208944;23;20437;-78
2023/01/24 13:21:55;;;;;;;24.33;14.60;;;2.10;99.90;;;;;;6210751;23;20477;-80
2023/01/24 13:24:40;;;;;;;25.63;14.43;;;1.90;99.90;;;;;;6212382;23;20904;-76
2023/01/24 13:27:18;;;;;;;28.60;16.03;;;1.80;99.90;;;;;;6211436;23;20396;-82
2023/01/24 13:30:00;;;;;;;23.70;13.30;;;1.90;99.90;;;;;;6211874;23;20435;-81
2023/01/24 13:32:27;;;;;;;27.00;15.00;;;1.90;99.90;;;;;;6207656;23;20399;-81